sensor_id;sensor_type;location;lat;lon;timestamp;temperature;humidity
79439;DHT22;68889;48.232;10.110;2023-05-10T00:01:48;13.40;96.50
79439;DHT22;68889;48.232;10.110;2023-05-10T00:04:14;13.30;96.80
79439;DHT22;68889;48.232;10.110;2023-05-10T00:06:39;13.30;96.80
79439;DHT22;68889;48.232;10.110;2023-05-10T00:09:05;13.30;97.00
79439;DHT22;68889;48.232;10.110;2023-05-10T00:11:31;13.20;97.10
79439;DHT22;68889;48.232;10.110;2023-05-10T00:13:56;13.20;96.60
79439;DHT22;68889;48.232;10.110;2023-05-10T00:16:22;13.30;96.60
79439;DHT22;68889;48.232;10.110;2023-05-10T00:18:47;13.20;96.80
79439;DHT22;68889;48.232;10.110;2023-05-10T00:21:13;13.20;96.80
79439;DHT22;68889;48.232;10.110;2023-05-10T00:23:38;13.20;97.00
79439;DHT22;68889;48.232;10.110;2023-05-10T00:26:04;13.20;96.80
79439;DHT22;68889;48.232;10.110;2023-05-10T00:28:29;13.20;96.80
79439;DHT22;68889;48.232;10.110;2023-05-10T00:30:55;13.20;97.10
79439;DHT22;68889;48.232;10.110;2023-05-10T00:33:21;13.10;97.50
79439;DHT22;68889;48.232;10.110;2023-05-10T00:35:46;13.10;97.20
79439;DHT22;68889;48.232;10.110;2023-05-10T00:38:12;13.10;97.10
79439;DHT22;68889;48.232;10.110;2023-05-10T00:40:37;13.10;97.10
79439;DHT22;68889;48.232;10.110;2023-05-10T00:43:03;13.10;97.30
79439;DHT22;68889;48.232;10.110;2023-05-10T00:45:30;13.10;97.00
79439;DHT22;68889;48.232;10.110;2023-05-10T00:47:57;13.10;96.80
79439;DHT22;68889;48.232;10.110;2023-05-10T00:50:25;13.10;96.80
79439;DHT22;68889;48.232;10.110;2023-05-10T00:52:51;13.00;96.90
79439;DHT22;68889;48.232;10.110;2023-05-10T00:55:17;13.10;97.10
79439;DHT22;68889;48.232;10.110;2023-05-10T00:57:43;13.00;97.40
79439;DHT22;68889;48.232;10.110;2023-05-10T01:00:09;13.00;97.30
79439;DHT22;68889;48.232;10.110;2023-05-10T01:02:36;13.00;97.30
79439;DHT22;68889;48.232;10.110;2023-05-10T01:05:02;12.90;97.30
79439;DHT22;68889;48.232;10.110;2023-05-10T01:07:31;12.90;97.40
79439;DHT22;68889;48.232;10.110;2023-05-10T01:09:57;12.90;97.30
79439;DHT22;68889;48.232;10.110;2023-05-10T01:12:23;12.90;97.30
79439;DHT22;68889;48.232;10.110;2023-05-10T01:14:48;12.80;97.60
79439;DHT22;68889;48.232;10.110;2023-05-10T01:17:14;12.80;97.70
79439;DHT22;68889;48.232;10.110;2023-05-10T01:19:41;12.80;97.40
79439;DHT22;68889;48.232;10.110;2023-05-10T01:31:03;12.80;97.00
79439;DHT22;68889;48.232;10.110;2023-05-10T01:38:56;12.80;97.50
79439;DHT22;68889;48.232;10.110;2023-05-10T01:46:41;12.80;97.30
79439;DHT22;68889;48.232;10.110;2023-05-10T01:49:40;12.80;97.20
79439;DHT22;68889;48.232;10.110;2023-05-10T01:52:10;12.70;97.40
79439;DHT22;68889;48.232;10.110;2023-05-10T01:57:44;12.70;97.60
79439;DHT22;68889;48.232;10.110;2023-05-10T02:00:12;12.70;97.30
79439;DHT22;68889;48.232;10.110;2023-05-10T02:02:40;12.70;97.40
79439;DHT22;68889;48.232;10.110;2023-05-10T02:05:08;12.70;97.70
79439;DHT22;68889;48.232;10.110;2023-05-10T02:07:36;12.70;97.40
79439;DHT22;68889;48.232;10.110;2023-05-10T02:10:07;12.70;97.70
79439;DHT22;68889;48.232;10.110;2023-05-10T02:12:39;12.60;97.80
79439;DHT22;68889;48.232;10.110;2023-05-10T02:15:06;12.60;97.90
79439;DHT22;68889;48.232;10.110;2023-05-10T02:17:33;12.60;97.70
79439;DHT22;68889;48.232;10.110;2023-05-10T02:20:01;12.60;97.60
79439;DHT22;68889;48.232;10.110;2023-05-10T02:22:27;12.50;97.90
79439;DHT22;68889;48.232;10.110;2023-05-10T02:24:55;12.60;98.00
79439;DHT22;68889;48.232;10.110;2023-05-10T02:27:24;12.60;97.90
79439;DHT22;68889;48.232;10.110;2023-05-10T02:29:51;12.60;97.80
79439;DHT22;68889;48.232;10.110;2023-05-10T02:32:17;12.60;98.00
79439;DHT22;68889;48.232;10.110;2023-05-10T02:34:44;12.60;98.00
79439;DHT22;68889;48.232;10.110;2023-05-10T02:37:14;12.60;97.40
79439;DHT22;68889;48.232;10.110;2023-05-10T02:39:40;12.60;96.40
79439;DHT22;68889;48.232;10.110;2023-05-10T02:42:13;12.60;97.20
79439;DHT22;68889;48.232;10.110;2023-05-10T02:44:41;12.50;97.70
79439;DHT22;68889;48.232;10.110;2023-05-10T02:47:07;12.50;97.90
79439;DHT22;68889;48.232;10.110;2023-05-10T02:49:33;12.50;98.20
79439;DHT22;68889;48.232;10.110;2023-05-10T02:52:01;12.50;98.10
79439;DHT22;68889;48.232;10.110;2023-05-10T02:54:33;12.50;98.20
79439;DHT22;68889;48.232;10.110;2023-05-10T02:57:01;12.50;97.90
79439;DHT22;68889;48.232;10.110;2023-05-10T02:59:29;12.50;98.10
79439;DHT22;68889;48.232;10.110;2023-05-10T03:01:54;12.50;97.50
79439;DHT22;68889;48.232;10.110;2023-05-10T03:04:20;12.50;97.90
79439;DHT22;68889;48.232;10.110;2023-05-10T03:06:46;12.50;97.50
79439;DHT22;68889;48.232;10.110;2023-05-10T03:09:12;12.60;97.10
79439;DHT22;68889;48.232;10.110;2023-05-10T03:12:00;12.50;97.30
79439;DHT22;68889;48.232;10.110;2023-05-10T03:14:49;12.40;97.40
79439;DHT22;68889;48.232;10.110;2023-05-10T03:17:30;12.40;97.10
79439;DHT22;68889;48.232;10.110;2023-05-10T03:20:06;12.40;96.90
79439;DHT22;68889;48.232;10.110;2023-05-10T03:22:51;12.40;96.80
79439;DHT22;68889;48.232;10.110;2023-05-10T03:25:19;12.40;96.90
79439;DHT22;68889;48.232;10.110;2023-05-10T03:27:46;12.40;96.70
79439;DHT22;68889;48.232;10.110;2023-05-10T03:30:13;12.40;96.40
79439;DHT22;68889;48.232;10.110;2023-05-10T03:32:39;12.40;96.30
79439;DHT22;68889;48.232;10.110;2023-05-10T03:35:09;12.40;95.90
79439;DHT22;68889;48.232;10.110;2023-05-10T03:37:35;12.30;95.70
79439;DHT22;68889;48.232;10.110;2023-05-10T03:40:01;12.30;95.70
79439;DHT22;68889;48.232;10.110;2023-05-10T03:42:26;12.30;95.10
79439;DHT22;68889;48.232;10.110;2023-05-10T03:44:52;12.20;95.70
79439;DHT22;68889;48.232;10.110;2023-05-10T03:47:17;12.20;95.60
79439;DHT22;68889;48.232;10.110;2023-05-10T03:49:43;12.10;95.90
79439;DHT22;68889;48.232;10.110;2023-05-10T03:52:08;12.10;95.70
79439;DHT22;68889;48.232;10.110;2023-05-10T03:54:34;12.10;95.70
79439;DHT22;68889;48.232;10.110;2023-05-10T03:56:59;12.00;96.30
79439;DHT22;68889;48.232;10.110;2023-05-10T03:59:26;12.00;96.10
79439;DHT22;68889;48.232;10.110;2023-05-10T04:01:51;12.00;96.20
79439;DHT22;68889;48.232;10.110;2023-05-10T04:04:17;11.90;96.10
79439;DHT22;68889;48.232;10.110;2023-05-10T04:06:44;11.80;96.40
79439;DHT22;68889;48.232;10.110;2023-05-10T04:09:10;11.90;96.20
79439;DHT22;68889;48.232;10.110;2023-05-10T04:11:36;11.80;96.10
79439;DHT22;68889;48.232;10.110;2023-05-10T04:14:01;11.80;95.90
79439;DHT22;68889;48.232;10.110;2023-05-10T04:16:27;11.80;96.00
79439;DHT22;68889;48.232;10.110;2023-05-10T04:18:52;11.80;96.10
79439;DHT22;68889;48.232;10.110;2023-05-10T04:21:18;11.80;96.10
79439;DHT22;68889;48.232;10.110;2023-05-10T04:23:43;11.70;96.30
79439;DHT22;68889;48.232;10.110;2023-05-10T04:26:09;11.70;96.70
79439;DHT22;68889;48.232;10.110;2023-05-10T04:28:35;11.70;96.30
79439;DHT22;68889;48.232;10.110;2023-05-10T04:31:08;11.80;95.90
79439;DHT22;68889;48.232;10.110;2023-05-10T04:33:34;11.80;96.10
79439;DHT22;68889;48.232;10.110;2023-05-10T04:36:00;11.80;95.80
79439;DHT22;68889;48.232;10.110;2023-05-10T04:38:27;11.70;96.20
79439;DHT22;68889;48.232;10.110;2023-05-10T04:40:53;11.80;95.70
79439;DHT22;68889;48.232;10.110;2023-05-10T04:43:19;11.80;95.90
79439;DHT22;68889;48.232;10.110;2023-05-10T04:45:44;11.80;96.10
79439;DHT22;68889;48.232;10.110;2023-05-10T04:48:10;11.80;96.20
79439;DHT22;68889;48.232;10.110;2023-05-10T04:50:36;11.80;95.90
79439;DHT22;68889;48.232;10.110;2023-05-10T04:53:02;11.90;95.60
79439;DHT22;68889;48.232;10.110;2023-05-10T04:55:27;11.90;96.10
79439;DHT22;68889;48.232;10.110;2023-05-10T04:57:53;12.00;95.70
79439;DHT22;68889;48.232;10.110;2023-05-10T05:00:22;12.00;96.00
79439;DHT22;68889;48.232;10.110;2023-05-10T05:02:47;12.00;95.70
79439;DHT22;68889;48.232;10.110;2023-05-10T05:05:13;12.10;96.00
79439;DHT22;68889;48.232;10.110;2023-05-10T05:07:38;12.10;95.70
79439;DHT22;68889;48.232;10.110;2023-05-10T05:10:08;12.10;95.00
79439;DHT22;68889;48.232;10.110;2023-05-10T05:12:34;12.20;95.20
79439;DHT22;68889;48.232;10.110;2023-05-10T05:15:00;12.20;95.50
79439;DHT22;68889;48.232;10.110;2023-05-10T05:17:25;12.20;95.10
79439;DHT22;68889;48.232;10.110;2023-05-10T05:19:51;12.20;95.50
79439;DHT22;68889;48.232;10.110;2023-05-10T05:22:17;12.20;95.00
79439;DHT22;68889;48.232;10.110;2023-05-10T05:24:42;12.20;95.60
79439;DHT22;68889;48.232;10.110;2023-05-10T05:27:08;12.30;95.40
79439;DHT22;68889;48.232;10.110;2023-05-10T05:29:34;12.30;95.10
79439;DHT22;68889;48.232;10.110;2023-05-10T05:31:59;12.30;94.50
79439;DHT22;68889;48.232;10.110;2023-05-10T05:34:25;12.40;94.70
79439;DHT22;68889;48.232;10.110;2023-05-10T05:36:51;12.40;94.40
79439;DHT22;68889;48.232;10.110;2023-05-10T05:39:17;12.40;94.20
79439;DHT22;68889;48.232;10.110;2023-05-10T05:41:42;12.50;94.90
79439;DHT22;68889;48.232;10.110;2023-05-10T05:44:08;12.50;94.80
79439;DHT22;68889;48.232;10.110;2023-05-10T05:46:33;12.50;94.10
79439;DHT22;68889;48.232;10.110;2023-05-10T05:48:59;12.50;95.10
79439;DHT22;68889;48.232;10.110;2023-05-10T05:51:24;12.50;94.60
79439;DHT22;68889;48.232;10.110;2023-05-10T05:53:50;12.60;94.70
79439;DHT22;68889;48.232;10.110;2023-05-10T05:56:16;12.50;94.90
79439;DHT22;68889;48.232;10.110;2023-05-10T05:58:42;12.60;93.80
79439;DHT22;68889;48.232;10.110;2023-05-10T06:01:08;12.60;94.20
79439;DHT22;68889;48.232;10.110;2023-05-10T06:03:34;12.60;93.80
79439;DHT22;68889;48.232;10.110;2023-05-10T06:05:59;12.70;94.00
79439;DHT22;68889;48.232;10.110;2023-05-10T06:08:25;12.80;94.00
79439;DHT22;68889;48.232;10.110;2023-05-10T06:10:51;12.80;92.50
79439;DHT22;68889;48.232;10.110;2023-05-10T06:13:16;12.90;92.80
79439;DHT22;68889;48.232;10.110;2023-05-10T06:15:42;13.00;93.10
79439;DHT22;68889;48.232;10.110;2023-05-10T06:18:07;13.00;92.60
79439;DHT22;68889;48.232;10.110;2023-05-10T06:20:33;13.10;93.10
79439;DHT22;68889;48.232;10.110;2023-05-10T06:22:58;13.20;92.00
79439;DHT22;68889;48.232;10.110;2023-05-10T06:25:24;13.20;91.80
79439;DHT22;68889;48.232;10.110;2023-05-10T06:27:49;13.30;90.90
79439;DHT22;68889;48.232;10.110;2023-05-10T06:30:15;13.40;92.10
79439;DHT22;68889;48.232;10.110;2023-05-10T06:32:41;13.40;91.10
79439;DHT22;68889;48.232;10.110;2023-05-10T06:35:07;13.40;89.80
79439;DHT22;68889;48.232;10.110;2023-05-10T06:37:33;13.40;90.90
79439;DHT22;68889;48.232;10.110;2023-05-10T06:39:59;13.40;90.10
79439;DHT22;68889;48.232;10.110;2023-05-10T06:42:25;13.50;90.70
79439;DHT22;68889;48.232;10.110;2023-05-10T06:44:52;13.50;90.70
79439;DHT22;68889;48.232;10.110;2023-05-10T06:47:17;13.50;90.00
79439;DHT22;68889;48.232;10.110;2023-05-10T06:49:43;13.60;91.00
79439;DHT22;68889;48.232;10.110;2023-05-10T06:52:08;13.70;91.10
79439;DHT22;68889;48.232;10.110;2023-05-10T06:54:34;13.80;90.50
79439;DHT22;68889;48.232;10.110;2023-05-10T06:56:59;13.80;89.80
79439;DHT22;68889;48.232;10.110;2023-05-10T06:59:25;13.80;89.80
79439;DHT22;68889;48.232;10.110;2023-05-10T07:01:50;13.90;90.10
79439;DHT22;68889;48.232;10.110;2023-05-10T07:04:16;13.90;90.10
79439;DHT22;68889;48.232;10.110;2023-05-10T07:06:42;14.00;89.60
79439;DHT22;68889;48.232;10.110;2023-05-10T07:09:08;14.00;90.10
79439;DHT22;68889;48.232;10.110;2023-05-10T07:11:34;14.10;88.90
79439;DHT22;68889;48.232;10.110;2023-05-10T07:13:59;14.20;90.20
79439;DHT22;68889;48.232;10.110;2023-05-10T07:16:25;14.20;88.70
79439;DHT22;68889;48.232;10.110;2023-05-10T07:18:51;14.20;88.50
79439;DHT22;68889;48.232;10.110;2023-05-10T07:21:18;14.30;89.70
79439;DHT22;68889;48.232;10.110;2023-05-10T07:23:43;14.40;87.10
79439;DHT22;68889;48.232;10.110;2023-05-10T07:26:09;14.50;88.60
79439;DHT22;68889;48.232;10.110;2023-05-10T07:28:35;14.60;89.10
79439;DHT22;68889;48.232;10.110;2023-05-10T07:31:02;14.70;86.50
79439;DHT22;68889;48.232;10.110;2023-05-10T07:33:28;14.70;87.50
79439;DHT22;68889;48.232;10.110;2023-05-10T07:35:53;14.70;86.60
79439;DHT22;68889;48.232;10.110;2023-05-10T07:38:19;14.70;85.80
79439;DHT22;68889;48.232;10.110;2023-05-10T07:40:44;14.70;86.30
79439;DHT22;68889;48.232;10.110;2023-05-10T07:43:10;14.70;85.40
79439;DHT22;68889;48.232;10.110;2023-05-10T07:45:35;14.90;84.90
79439;DHT22;68889;48.232;10.110;2023-05-10T07:48:01;14.90;83.90
79439;DHT22;68889;48.232;10.110;2023-05-10T07:50:27;15.00;83.10
79439;DHT22;68889;48.232;10.110;2023-05-10T07:52:52;14.90;84.20
79439;DHT22;68889;48.232;10.110;2023-05-10T07:55:18;15.00;84.00
79439;DHT22;68889;48.232;10.110;2023-05-10T07:57:44;15.20;85.10
79439;DHT22;68889;48.232;10.110;2023-05-10T08:00:12;15.30;82.30
79439;DHT22;68889;48.232;10.110;2023-05-10T08:02:38;15.40;81.20
79439;DHT22;68889;48.232;10.110;2023-05-10T08:05:05;15.30;81.20
79439;DHT22;68889;48.232;10.110;2023-05-10T08:07:30;15.30;81.30
79439;DHT22;68889;48.232;10.110;2023-05-10T08:09:56;15.30;80.80
79439;DHT22;68889;48.232;10.110;2023-05-10T08:12:21;15.30;81.70
79439;DHT22;68889;48.232;10.110;2023-05-10T08:14:47;15.50;81.90
79439;DHT22;68889;48.232;10.110;2023-05-10T08:17:13;15.60;82.50
79439;DHT22;68889;48.232;10.110;2023-05-10T08:19:38;15.80;81.10
79439;DHT22;68889;48.232;10.110;2023-05-10T08:22:04;15.90;80.90
79439;DHT22;68889;48.232;10.110;2023-05-10T08:24:29;16.10;82.70
79439;DHT22;68889;48.232;10.110;2023-05-10T08:26:55;16.20;82.90
79439;DHT22;68889;48.232;10.110;2023-05-10T08:29:21;16.20;80.10
79439;DHT22;68889;48.232;10.110;2023-05-10T08:31:46;16.20;76.40
79439;DHT22;68889;48.232;10.110;2023-05-10T08:34:12;16.00;77.00
79439;DHT22;68889;48.232;10.110;2023-05-10T08:36:37;16.10;79.80
79439;DHT22;68889;48.232;10.110;2023-05-10T08:39:03;16.20;80.00
79439;DHT22;68889;48.232;10.110;2023-05-10T08:41:29;16.10;76.80
79439;DHT22;68889;48.232;10.110;2023-05-10T08:43:59;16.10;77.10
79439;DHT22;68889;48.232;10.110;2023-05-10T08:46:28;16.00;76.60
79439;DHT22;68889;48.232;10.110;2023-05-10T08:48:56;16.10;78.70
79439;DHT22;68889;48.232;10.110;2023-05-10T08:51:24;16.20;77.80
79439;DHT22;68889;48.232;10.110;2023-05-10T08:53:53;16.40;77.90
79439;DHT22;68889;48.232;10.110;2023-05-10T08:56:19;16.50;76.00
79439;DHT22;68889;48.232;10.110;2023-05-10T08:58:45;16.70;79.00
79439;DHT22;68889;48.232;10.110;2023-05-10T09:01:12;16.90;74.70
79439;DHT22;68889;48.232;10.110;2023-05-10T09:03:39;16.90;76.10
79439;DHT22;68889;48.232;10.110;2023-05-10T09:06:05;16.90;77.70
79439;DHT22;68889;48.232;10.110;2023-05-10T09:08:31;16.90;77.70
79439;DHT22;68889;48.232;10.110;2023-05-10T09:10:57;16.80;76.90
79439;DHT22;68889;48.232;10.110;2023-05-10T09:13:23;16.70;75.20
79439;DHT22;68889;48.232;10.110;2023-05-10T09:15:49;16.60;75.50
79439;DHT22;68889;48.232;10.110;2023-05-10T09:18:15;16.70;77.30
79439;DHT22;68889;48.232;10.110;2023-05-10T09:20:41;16.90;72.70
79439;DHT22;68889;48.232;10.110;2023-05-10T09:23:06;16.60;73.10
79439;DHT22;68889;48.232;10.110;2023-05-10T09:25:32;16.70;75.90
79439;DHT22;68889;48.232;10.110;2023-05-10T09:28:02;16.80;76.50
79439;DHT22;68889;48.232;10.110;2023-05-10T09:30:31;16.90;77.30
79439;DHT22;68889;48.232;10.110;2023-05-10T09:32:58;17.00;76.20
79439;DHT22;68889;48.232;10.110;2023-05-10T09:35:26;16.90;74.10
79439;DHT22;68889;48.232;10.110;2023-05-10T09:37:55;16.80;74.80
79439;DHT22;68889;48.232;10.110;2023-05-10T09:40:22;16.90;75.00
79439;DHT22;68889;48.232;10.110;2023-05-10T09:43:00;17.00;75.10
79439;DHT22;68889;48.232;10.110;2023-05-10T09:45:28;17.10;72.10
79439;DHT22;68889;48.232;10.110;2023-05-10T09:47:54;17.10;74.90
79439;DHT22;68889;48.232;10.110;2023-05-10T09:50:20;17.20;72.80
79439;DHT22;68889;48.232;10.110;2023-05-10T09:52:59;17.30;75.00
79439;DHT22;68889;48.232;10.110;2023-05-10T09:55:46;17.50;72.50
79439;DHT22;68889;48.232;10.110;2023-05-10T09:58:13;17.50;72.10
79439;DHT22;68889;48.232;10.110;2023-05-10T10:00:40;17.50;70.20
79439;DHT22;68889;48.232;10.110;2023-05-10T10:03:12;17.60;74.00
79439;DHT22;68889;48.232;10.110;2023-05-10T10:05:40;17.70;72.60
79439;DHT22;68889;48.232;10.110;2023-05-10T10:08:06;17.60;73.00
79439;DHT22;68889;48.232;10.110;2023-05-10T10:10:33;17.60;70.00
79439;DHT22;68889;48.232;10.110;2023-05-10T10:12:59;17.60;73.90
79439;DHT22;68889;48.232;10.110;2023-05-10T10:15:25;17.60;70.50
79439;DHT22;68889;48.232;10.110;2023-05-10T10:17:52;17.60;71.00
79439;DHT22;68889;48.232;10.110;2023-05-10T10:20:19;17.50;70.70
79439;DHT22;68889;48.232;10.110;2023-05-10T10:22:45;17.70;72.60
79439;DHT22;68889;48.232;10.110;2023-05-10T10:25:13;18.00;67.70
79439;DHT22;68889;48.232;10.110;2023-05-10T10:35:45;18.40;68.90
79439;DHT22;68889;48.232;10.110;2023-05-10T10:38:12;18.40;67.80
79439;DHT22;68889;48.232;10.110;2023-05-10T10:40:38;18.50;67.10
79439;DHT22;68889;48.232;10.110;2023-05-10T10:43:26;18.40;66.70
79439;DHT22;68889;48.232;10.110;2023-05-10T10:46:13;18.10;66.20
79439;DHT22;68889;48.232;10.110;2023-05-10T10:48:40;17.60;67.60
79439;DHT22;68889;48.232;10.110;2023-05-10T10:51:06;17.40;68.40
79439;DHT22;68889;48.232;10.110;2023-05-10T10:53:32;17.20;71.40
79439;DHT22;68889;48.232;10.110;2023-05-10T10:56:13;17.00;72.40
79439;DHT22;68889;48.232;10.110;2023-05-10T10:58:41;16.70;71.20
79439;DHT22;68889;48.232;10.110;2023-05-10T11:01:13;16.70;71.80
79439;DHT22;68889;48.232;10.110;2023-05-10T11:03:40;16.70;72.20
79439;DHT22;68889;48.232;10.110;2023-05-10T11:06:06;16.60;72.90
79439;DHT22;68889;48.232;10.110;2023-05-10T11:08:41;16.80;75.20
79439;DHT22;68889;48.232;10.110;2023-05-10T11:11:07;17.00;73.00
79439;DHT22;68889;48.232;10.110;2023-05-10T11:13:41;17.10;73.70
79439;DHT22;68889;48.232;10.110;2023-05-10T11:16:15;17.20;71.40
79439;DHT22;68889;48.232;10.110;2023-05-10T11:18:53;17.20;71.50
79439;DHT22;68889;48.232;10.110;2023-05-10T11:21:19;17.20;73.10
79439;DHT22;68889;48.232;10.110;2023-05-10T11:23:59;17.10;70.70
79439;DHT22;68889;48.232;10.110;2023-05-10T11:26:30;16.90;71.40
79439;DHT22;68889;48.232;10.110;2023-05-10T11:28:56;16.60;71.20
79439;DHT22;68889;48.232;10.110;2023-05-10T11:31:22;16.40;73.10
79439;DHT22;68889;48.232;10.110;2023-05-10T11:33:50;16.30;74.90
79439;DHT22;68889;48.232;10.110;2023-05-10T11:36:17;16.20;73.90
79439;DHT22;68889;48.232;10.110;2023-05-10T11:38:43;16.00;76.80
79439;DHT22;68889;48.232;10.110;2023-05-10T11:41:09;15.90;76.50
79439;DHT22;68889;48.232;10.110;2023-05-10T11:43:37;15.90;76.20
79439;DHT22;68889;48.232;10.110;2023-05-10T11:46:05;15.90;76.10
79439;DHT22;68889;48.232;10.110;2023-05-10T11:48:31;15.80;76.30
79439;DHT22;68889;48.232;10.110;2023-05-10T11:50:57;15.80;76.00
79439;DHT22;68889;48.232;10.110;2023-05-10T11:53:25;15.80;75.80
79439;DHT22;68889;48.232;10.110;2023-05-10T11:55:50;15.70;75.90
79439;DHT22;68889;48.232;10.110;2023-05-10T11:58:18;15.60;75.80
79439;DHT22;68889;48.232;10.110;2023-05-10T12:00:44;15.50;76.40
79439;DHT22;68889;48.232;10.110;2023-05-10T12:03:10;15.40;78.00
79439;DHT22;68889;48.232;10.110;2023-05-10T12:05:36;15.40;78.80
79439;DHT22;68889;48.232;10.110;2023-05-10T12:08:13;15.30;78.70
79439;DHT22;68889;48.232;10.110;2023-05-10T12:10:38;15.30;78.30
79439;DHT22;68889;48.232;10.110;2023-05-10T12:13:04;15.20;77.20
79439;DHT22;68889;48.232;10.110;2023-05-10T12:15:29;15.00;78.70
79439;DHT22;68889;48.232;10.110;2023-05-10T12:17:56;15.00;80.90
79439;DHT22;68889;48.232;10.110;2023-05-10T12:20:27;14.90;79.20
79439;DHT22;68889;48.232;10.110;2023-05-10T12:22:55;14.90;81.70
79439;DHT22;68889;48.232;10.110;2023-05-10T12:25:23;14.90;81.70
79439;DHT22;68889;48.232;10.110;2023-05-10T12:27:57;15.00;83.20
79439;DHT22;68889;48.232;10.110;2023-05-10T12:30:24;15.20;83.80
79439;DHT22;68889;48.232;10.110;2023-05-10T12:32:50;15.20;82.70
79439;DHT22;68889;48.232;10.110;2023-05-10T12:35:16;15.10;81.80
79439;DHT22;68889;48.232;10.110;2023-05-10T12:37:43;15.10;84.00
79439;DHT22;68889;48.232;10.110;2023-05-10T12:40:10;14.90;83.70
79439;DHT22;68889;48.232;10.110;2023-05-10T12:42:39;14.90;84.10
79439;DHT22;68889;48.232;10.110;2023-05-10T12:45:06;15.00;84.10
79439;DHT22;68889;48.232;10.110;2023-05-10T12:47:32;15.00;84.10
79439;DHT22;68889;48.232;10.110;2023-05-10T12:50:01;15.10;85.40
79439;DHT22;68889;48.232;10.110;2023-05-10T12:52:27;15.20;84.50
79439;DHT22;68889;48.232;10.110;2023-05-10T12:54:53;15.30;82.90
79439;DHT22;68889;48.232;10.110;2023-05-10T12:57:22;15.30;83.40
79439;DHT22;68889;48.232;10.110;2023-05-10T12:59:47;15.30;81.70
79439;DHT22;68889;48.232;10.110;2023-05-10T13:02:13;15.20;83.10
79439;DHT22;68889;48.232;10.110;2023-05-10T13:04:40;15.20;84.00
79439;DHT22;68889;48.232;10.110;2023-05-10T13:07:09;15.10;83.90
79439;DHT22;68889;48.232;10.110;2023-05-10T13:09:34;15.20;82.90
79439;DHT22;68889;48.232;10.110;2023-05-10T13:12:00;15.10;84.00
79439;DHT22;68889;48.232;10.110;2023-05-10T13:14:26;15.10;82.00
79439;DHT22;68889;48.232;10.110;2023-05-10T13:16:52;15.10;82.70
79439;DHT22;68889;48.232;10.110;2023-05-10T13:19:17;15.00;84.20
79439;DHT22;68889;48.232;10.110;2023-05-10T13:21:43;14.90;83.00
79439;DHT22;68889;48.232;10.110;2023-05-10T13:24:12;14.90;84.40
79439;DHT22;68889;48.232;10.110;2023-05-10T13:26:42;14.90;83.90
79439;DHT22;68889;48.232;10.110;2023-05-10T13:29:07;15.00;84.50
79439;DHT22;68889;48.232;10.110;2023-05-10T13:31:34;15.00;82.10
79439;DHT22;68889;48.232;10.110;2023-05-10T13:33:59;15.20;82.90
79439;DHT22;68889;48.232;10.110;2023-05-10T13:36:25;15.10;80.80
79439;DHT22;68889;48.232;10.110;2023-05-10T13:38:50;15.20;81.80
79439;DHT22;68889;48.232;10.110;2023-05-10T13:41:16;15.30;81.30
79439;DHT22;68889;48.232;10.110;2023-05-10T13:43:41;15.30;79.40
79439;DHT22;68889;48.232;10.110;2023-05-10T13:46:07;15.30;80.50
79439;DHT22;68889;48.232;10.110;2023-05-10T13:48:33;15.30;80.20
79439;DHT22;68889;48.232;10.110;2023-05-10T13:50:58;15.40;80.30
79439;DHT22;68889;48.232;10.110;2023-05-10T13:53:24;15.30;80.80
79439;DHT22;68889;48.232;10.110;2023-05-10T13:55:49;15.30;81.60
79439;DHT22;68889;48.232;10.110;2023-05-10T13:58:15;15.20;79.80
79439;DHT22;68889;48.232;10.110;2023-05-10T14:00:40;15.00;80.40
79439;DHT22;68889;48.232;10.110;2023-05-10T14:03:06;14.70;81.60
79439;DHT22;68889;48.232;10.110;2023-05-10T14:05:34;14.40;80.70
79439;DHT22;68889;48.232;10.110;2023-05-10T14:07:59;14.00;86.40
79439;DHT22;68889;48.232;10.110;2023-05-10T14:10:25;13.80;88.40
79439;DHT22;68889;48.232;10.110;2023-05-10T14:12:50;13.60;87.80
79439;DHT22;68889;48.232;10.110;2023-05-10T14:15:16;13.20;86.80
79439;DHT22;68889;48.232;10.110;2023-05-10T14:17:41;13.20;87.50
79439;DHT22;68889;48.232;10.110;2023-05-10T14:20:07;13.10;87.80
79439;DHT22;68889;48.232;10.110;2023-05-10T14:22:33;13.10;89.50
79439;DHT22;68889;48.232;10.110;2023-05-10T14:24:59;13.20;89.90
79439;DHT22;68889;48.232;10.110;2023-05-10T14:27:25;13.30;90.90
79439;DHT22;68889;48.232;10.110;2023-05-10T14:29:51;13.40;89.00
79439;DHT22;68889;48.232;10.110;2023-05-10T14:32:16;13.50;88.70
79439;DHT22;68889;48.232;10.110;2023-05-10T14:34:42;13.60;86.90
79439;DHT22;68889;48.232;10.110;2023-05-10T14:37:10;13.70;89.20
79439;DHT22;68889;48.232;10.110;2023-05-10T14:39:36;13.80;90.00
79439;DHT22;68889;48.232;10.110;2023-05-10T14:42:02;13.90;90.10
79439;DHT22;68889;48.232;10.110;2023-05-10T14:44:27;13.90;90.50
79439;DHT22;68889;48.232;10.110;2023-05-10T14:46:53;14.10;89.70
79439;DHT22;68889;48.232;10.110;2023-05-10T14:49:19;14.30;90.40
79439;DHT22;68889;48.232;10.110;2023-05-10T14:51:44;14.20;86.20
79439;DHT22;68889;48.232;10.110;2023-05-10T14:54:10;14.30;89.60
79439;DHT22;68889;48.232;10.110;2023-05-10T14:56:36;14.20;86.10
79439;DHT22;68889;48.232;10.110;2023-05-10T14:59:03;14.20;88.10
79439;DHT22;68889;48.232;10.110;2023-05-10T15:01:29;14.00;85.00
79439;DHT22;68889;48.232;10.110;2023-05-10T15:03:54;14.00;89.10
79439;DHT22;68889;48.232;10.110;2023-05-10T15:06:25;14.20;88.90
79439;DHT22;68889;48.232;10.110;2023-05-10T15:08:55;14.30;88.50
79439;DHT22;68889;48.232;10.110;2023-05-10T15:11:21;14.20;87.50
79439;DHT22;68889;48.232;10.110;2023-05-10T15:13:46;14.10;85.10
79439;DHT22;68889;48.232;10.110;2023-05-10T15:16:12;14.20;87.00
79439;DHT22;68889;48.232;10.110;2023-05-10T15:18:37;14.20;86.00
79439;DHT22;68889;48.232;10.110;2023-05-10T15:21:03;14.10;87.00
79439;DHT22;68889;48.232;10.110;2023-05-10T15:23:28;14.10;87.50
79439;DHT22;68889;48.232;10.110;2023-05-10T15:25:55;14.10;87.70
79439;DHT22;68889;48.232;10.110;2023-05-10T15:28:21;14.20;90.00
79439;DHT22;68889;48.232;10.110;2023-05-10T15:30:46;14.20;89.80
79439;DHT22;68889;48.232;10.110;2023-05-10T15:33:12;14.20;88.70
79439;DHT22;68889;48.232;10.110;2023-05-10T15:35:37;14.20;89.00
79439;DHT22;68889;48.232;10.110;2023-05-10T15:38:05;14.10;88.90
79439;DHT22;68889;48.232;10.110;2023-05-10T15:40:31;14.10;88.90
79439;DHT22;68889;48.232;10.110;2023-05-10T15:42:56;14.00;87.00
79439;DHT22;68889;48.232;10.110;2023-05-10T15:45:22;14.00;88.40